createdAt,value
2019-04-22T00:00:02.972Z,10.28
2019-04-22T00:01:08.309Z,10.17
2019-04-22T00:02:07.934Z,10.26
2019-04-22T00:03:06.601Z,10.38
2019-04-22T00:04:09.079Z,10.46
2019-04-22T00:05:14.398Z,10.47
2019-04-22T00:06:24.257Z,10.35
2019-04-22T00:07:29.187Z,10.32
2019-04-22T00:08:29.616Z,10.22
2019-04-22T00:09:36.615Z,10.29
2019-04-22T00:10:33.757Z,10.20
2019-04-22T00:11:29.326Z,10.16
2019-04-22T00:13:32.412Z,10.07
2019-04-22T00:14:24.565Z,10.11
2019-04-22T00:15:20.147Z,10.14
2019-04-22T00:16:33.918Z,10.06
2019-04-22T00:18:40.427Z,10.36
2019-04-22T00:19:37.207Z,10.31
2019-04-22T00:20:30.793Z,10.31
2019-04-22T00:21:32.043Z,10.34
2019-04-22T00:22:27.354Z,10.20
2019-04-22T00:23:24.505Z,10.22
2019-04-22T00:24:33.490Z,10.10
2019-04-22T00:26:30.858Z,10.11
2019-04-22T00:27:33.938Z,10.13
2019-04-22T00:28:30.842Z,9.99
2019-04-22T00:29:49.358Z,9.95
2019-04-22T00:30:47.362Z,9.95
2019-04-22T00:31:28.590Z,9.95
2019-04-22T00:32:28.690Z,9.95
2019-04-22T00:33:29.002Z,9.88
2019-04-22T00:34:30.186Z,9.88
2019-04-22T00:35:24.210Z,9.74
2019-04-22T00:36:29.230Z,9.74
2019-04-22T00:37:29.995Z,9.68
2019-04-22T00:38:33.387Z,9.71
2019-04-22T00:39:37.281Z,9.68
2019-04-22T00:40:34.047Z,9.63
2019-04-22T00:41:28.669Z,9.62
2019-04-22T00:43:33.337Z,9.63
2019-04-22T00:44:35.186Z,9.70
2019-04-22T00:45:34.463Z,9.70
2019-04-22T00:46:31.552Z,9.68
2019-04-22T00:47:32.476Z,9.52
2019-04-22T00:50:10.943Z,9.52
2019-04-22T00:50:34.711Z,9.50
2019-04-22T00:51:36.641Z,9.50
2019-04-22T00:52:41.975Z,9.48
2019-04-22T00:54:31.108Z,9.37
2019-04-22T00:55:31.232Z,9.38
2019-04-22T00:56:31.087Z,9.30
2019-04-22T00:58:33.817Z,9.34
2019-04-22T00:59:29.633Z,9.32
2019-04-22T01:00:31.422Z,9.31
2019-04-22T01:01:32.117Z,9.30
2019-04-22T01:02:36.040Z,9.26
2019-04-22T01:03:40.633Z,9.24
2019-04-22T01:04:34.671Z,9.24
2019-04-22T01:05:36.646Z,9.22
2019-04-22T01:06:49.459Z,9.31
2019-04-22T01:07:30.400Z,9.26
2019-04-22T01:08:43.193Z,9.24
2019-04-22T01:09:30.098Z,9.26
2019-04-22T01:10:36.921Z,9.32
2019-04-22T01:12:38.077Z,9.30
2019-04-22T01:13:34.313Z,9.26
2019-04-22T01:14:36.947Z,9.26
2019-04-22T01:15:34.384Z,9.15
2019-04-22T01:16:28.130Z,8.98
2019-04-22T01:17:34.373Z,9.04
2019-04-22T01:18:30.528Z,9.17
2019-04-22T01:19:40.329Z,9.30
2019-04-22T01:20:58.857Z,9.17
2019-04-22T01:21:36.104Z,9.17
2019-04-22T01:22:30.014Z,9.16
2019-04-22T01:23:29.650Z,9.17
2019-04-22T01:24:31.117Z,9.37
2019-04-22T01:25:24.941Z,9.32
2019-04-22T01:26:27.121Z,9.35
2019-04-22T01:27:20.639Z,9.32
2019-04-22T01:28:25.369Z,9.38
2019-04-22T01:29:21.961Z,9.45
2019-04-22T01:30:21.123Z,9.35
2019-04-22T01:31:13.574Z,9.32
2019-04-22T01:32:15.478Z,9.26
2019-04-22T01:33:16.078Z,9.32
2019-04-22T01:34:23.223Z,9.27
2019-04-22T01:35:23.577Z,9.27
2019-04-22T01:36:25.917Z,9.23
2019-04-22T01:37:29.733Z,9.04
2019-04-22T01:38:23.600Z,9.06
2019-04-22T01:39:35.930Z,9.08
2019-04-22T01:40:38.924Z,8.96
2019-04-22T01:41:41.805Z,9.03
2019-04-22T01:42:35.816Z,9.00
2019-04-22T01:43:50.004Z,9.04
2019-04-22T01:44:33.308Z,9.06
2019-04-22T01:45:36.398Z,9.06
2019-04-22T01:46:42.659Z,9.04
2019-04-22T01:47:39.513Z,8.97
2019-04-22T01:48:32.598Z,9.03
2019-04-22T01:49:34.377Z,8.93
2019-04-22T01:50:32.135Z,8.88
2019-04-22T01:51:50.002Z,8.89
2019-04-22T01:52:38.515Z,8.78
2019-04-22T01:53:36.062Z,8.75
2019-04-22T01:55:37.639Z,8.98
2019-04-22T01:56:38.970Z,8.91
2019-04-22T01:57:35.280Z,8.89
2019-04-22T01:58:28.967Z,8.93
2019-04-22T01:59:26.868Z,8.86
2019-04-22T02:00:38.371Z,8.78
2019-04-22T02:01:37.406Z,8.75
2019-04-22T02:02:40.008Z,8.71
2019-04-22T02:03:44.700Z,8.58
2019-04-22T02:04:38.597Z,8.68
2019-04-22T02:05:40.221Z,8.71
2019-04-22T02:06:35.162Z,8.70
2019-04-22T02:07:34.038Z,8.78
2019-04-22T02:09:37.998Z,8.73
2019-04-22T02:10:44.586Z,8.64
2019-04-22T02:11:40.487Z,8.68
2019-04-22T02:12:45.945Z,8.64
2019-04-22T02:13:38.234Z,8.61
2019-04-22T02:14:39.487Z,8.57
2019-04-22T02:15:46.487Z,8.57
2019-04-22T02:17:37.147Z,8.67
2019-04-22T02:18:39.407Z,8.67
2019-04-22T02:19:50.209Z,8.67
2019-04-22T02:20:38.755Z,8.61
2019-04-22T02:21:38.619Z,8.61
2019-04-22T02:22:50.165Z,8.43
2019-04-22T02:24:39.692Z,8.58
2019-04-22T02:25:44.829Z,8.54
2019-04-22T02:26:40.458Z,8.47
2019-04-22T02:27:43.743Z,8.55
2019-04-22T02:28:52.362Z,8.47
2019-04-22T02:29:31.055Z,8.46
2019-04-22T02:30:49.933Z,8.46
2019-04-22T02:31:59.067Z,8.46
2019-04-22T02:32:49.536Z,8.37
2019-04-22T02:34:05.402Z,8.39
2019-04-22T02:34:49.685Z,8.28
2019-04-22T02:35:58.300Z,8.29
2019-04-22T02:36:43.033Z,8.25
2019-04-22T02:37:57.023Z,8.31
2019-04-22T02:39:42.819Z,8.21
2019-04-22T02:41:00.288Z,8.22
2019-04-22T02:41:54.704Z,8.20
2019-04-22T02:42:34.924Z,8.17
2019-04-22T02:43:51.482Z,8.09
2019-04-22T02:44:42.778Z,8.17
2019-04-22T02:45:58.230Z,8.10
2019-04-22T02:47:59.247Z,8.13
2019-04-22T02:49:39.735Z,8.07
2019-04-22T02:50:45.480Z,8.06
2019-04-22T02:52:50.908Z,8.17
2019-04-22T02:54:15.226Z,8.17
2019-04-22T02:55:48.912Z,8.10
2019-04-22T02:56:37.862Z,8.14
2019-04-22T02:57:39.836Z,8.18
2019-04-22T02:58:58.714Z,8.14
2019-04-22T02:59:46.880Z,8.20
2019-04-22T03:00:44.403Z,8.20
2019-04-22T03:02:54.538Z,8.27
2019-04-22T03:04:49.139Z,8.17
2019-04-22T03:06:08.876Z,8.12
2019-04-22T03:06:38.406Z,8.07
2019-04-22T03:07:55.219Z,8.02
2019-04-22T03:08:45.655Z,7.99
2019-04-22T03:09:39.686Z,8.12
2019-04-22T03:11:52.999Z,8.18
2019-04-22T03:14:41.353Z,8.09
2019-04-22T03:15:55.554Z,8.03
2019-04-22T03:16:57.415Z,8.07
2019-04-22T03:17:43.925Z,8.03
2019-04-22T03:18:57.212Z,8.00
2019-04-22T03:19:52.014Z,7.96
2019-04-22T03:20:53.377Z,7.96
2019-04-22T03:22:46.875Z,8.09
2019-04-22T03:23:58.607Z,8.10
2019-04-22T03:24:46.263Z,8.14
2019-04-22T03:26:05.050Z,8.12
2019-04-22T03:27:42.712Z,8.12
2019-04-22T03:28:57.052Z,8.14
2019-04-22T03:30:07.861Z,8.09
2019-04-22T03:30:53.570Z,8.06
2019-04-22T03:32:18.071Z,8.04
2019-04-22T03:34:21.497Z,7.94
2019-04-22T03:35:20.050Z,7.94
2019-04-22T03:39:55.234Z,7.94
2019-04-22T03:42:00.560Z,7.89
2019-04-22T03:42:56.064Z,7.82
2019-04-22T03:43:56.434Z,7.84
2019-04-22T03:45:51.673Z,7.82
2019-04-22T03:46:53.440Z,7.86
2019-04-22T03:49:04.880Z,7.71
2019-04-22T03:49:58.541Z,7.81
2019-04-22T03:50:38.870Z,7.73
2019-04-22T03:52:44.472Z,7.74
2019-04-22T03:53:54.656Z,7.70
2019-04-22T03:55:45.056Z,7.79
2019-04-22T03:57:50.372Z,7.69
2019-04-22T03:58:52.761Z,7.58
2019-04-22T03:59:55.051Z,7.57
2019-04-22T04:01:59.332Z,7.47
2019-04-22T04:03:51.382Z,7.50
2019-04-22T04:04:43.585Z,7.55
2019-04-22T04:06:00.322Z,7.60
2019-04-22T04:07:40.292Z,7.60
2019-04-22T04:08:39.039Z,7.57
2019-04-22T04:09:50.969Z,7.54
2019-04-22T04:12:59.243Z,7.34
2019-04-22T04:13:52.150Z,7.33
2019-04-22T04:15:12.273Z,7.34
2019-04-22T04:15:42.675Z,7.23
2019-04-22T04:16:56.230Z,7.23
2019-04-22T04:18:58.183Z,7.21
2019-04-22T04:20:07.985Z,7.24
2019-04-22T04:24:01.237Z,7.16
2019-04-22T04:25:17.173Z,7.23
2019-04-22T04:25:46.565Z,7.15
2019-04-22T04:26:56.431Z,7.23
2019-04-22T04:30:46.624Z,7.01
2019-04-22T04:32:02.640Z,7.00
2019-04-22T04:32:55.346Z,6.91
2019-04-22T04:34:54.166Z,6.96
2019-04-22T04:36:54.847Z,7.07
2019-04-22T04:37:52.136Z,7.08
2019-04-22T04:38:51.948Z,7.16
2019-04-22T04:40:05.135Z,7.14
2019-04-22T04:40:49.184Z,7.19
2019-04-22T04:41:54.366Z,7.18
2019-04-22T04:42:58.354Z,7.11
2019-04-22T04:46:07.290Z,6.94
2019-04-22T04:46:59.252Z,6.89
2019-04-22T04:49:00.060Z,6.89
2019-04-22T04:49:54.639Z,6.89
2019-04-22T04:51:00.030Z,6.90
2019-04-22T04:52:14.505Z,6.96
2019-04-22T04:53:58.222Z,7.01
2019-04-22T04:55:03.919Z,7.14
2019-04-22T04:55:46.842Z,7.27
2019-04-22T04:58:22.155Z,7.36
2019-04-22T04:59:05.694Z,7.33
2019-04-22T05:00:57.150Z,7.33
2019-04-22T05:02:52.150Z,7.37
2019-04-22T05:05:05.300Z,7.36
2019-04-22T05:05:47.698Z,7.39
2019-04-22T05:06:59.420Z,7.48
2019-04-22T05:09:57.346Z,7.19
2019-04-22T05:11:00.478Z,7.21
2019-04-22T05:12:01.990Z,7.08
2019-04-22T05:13:01.783Z,7.14
2019-04-22T05:14:55.118Z,7.36
2019-04-22T05:16:03.328Z,7.44
2019-04-22T05:18:02.929Z,7.51
2019-04-22T05:18:53.013Z,7.54
2019-04-22T05:19:49.607Z,7.55
2019-04-22T05:20:59.706Z,7.54
2019-04-22T05:21:53.457Z,7.51
2019-04-22T05:22:44.493Z,7.54
2019-04-22T05:24:56.891Z,7.57
2019-04-22T05:25:44.436Z,7.52
2019-04-22T05:26:52.384Z,7.51
2019-04-22T05:27:45.297Z,7.54
2019-04-22T05:30:10.033Z,7.51
2019-04-22T05:30:42.474Z,7.55
2019-04-22T05:31:52.212Z,7.58
2019-04-22T05:33:51.071Z,7.54
2019-04-22T05:34:48.574Z,7.51
2019-04-22T05:35:51.126Z,7.60
2019-04-22T05:36:48.439Z,7.57
2019-04-22T05:37:50.023Z,7.66
2019-04-22T05:38:53.649Z,7.57
2019-04-22T05:39:51.387Z,7.62
2019-04-22T05:40:41.109Z,7.69
2019-04-22T05:41:48.395Z,7.69
2019-04-22T05:42:51.487Z,7.73
2019-04-22T05:43:50.133Z,7.73
2019-04-22T05:44:49.769Z,7.74
2019-04-22T05:45:49.570Z,7.81
2019-04-22T05:46:49.957Z,7.74
2019-04-22T05:47:51.887Z,7.70
2019-04-22T05:48:46.661Z,7.77
2019-04-22T05:49:45.883Z,7.81
2019-04-22T05:50:45.333Z,7.88
2019-04-22T05:52:04.700Z,7.95
2019-04-22T05:52:46.896Z,7.95
2019-04-22T05:53:48.362Z,8.03
2019-04-22T05:54:50.488Z,8.00
2019-04-22T05:55:47.896Z,8.12
2019-04-22T05:56:40.826Z,8.12
2019-04-22T05:57:44.391Z,8.09
2019-04-22T05:58:56.571Z,8.13
2019-04-22T05:59:56.815Z,8.06
2019-04-22T06:01:13.123Z,8.06
2019-04-22T06:02:01.326Z,8.17
2019-04-22T06:03:50.911Z,8.13
2019-04-22T06:04:51.806Z,8.20
2019-04-22T06:05:47.404Z,8.14
2019-04-22T06:06:46.853Z,8.20
2019-04-22T06:07:45.690Z,8.27
2019-04-22T06:08:53.249Z,8.29
2019-04-22T06:09:52.961Z,8.36
2019-04-22T06:11:40.607Z,8.40
2019-04-22T06:12:46.539Z,8.43
2019-04-22T06:13:38.958Z,8.47
2019-04-22T06:14:48.158Z,8.50
2019-04-22T06:15:44.100Z,8.49
2019-04-22T06:16:50.231Z,8.47
2019-04-22T06:17:57.617Z,8.52
2019-04-22T06:18:48.989Z,8.55
2019-04-22T06:19:55.914Z,8.61
2019-04-22T06:20:53.860Z,8.68
2019-04-22T06:22:04.281Z,8.70
2019-04-22T06:22:50.451Z,8.76
2019-04-22T06:23:58.492Z,8.79
2019-04-22T06:24:54.138Z,8.68
2019-04-22T06:26:14.809Z,8.82
2019-04-22T06:27:08.316Z,8.75
2019-04-22T06:28:00.266Z,8.79
2019-04-22T06:29:45.772Z,8.94
2019-04-22T06:30:50.357Z,8.97
2019-04-22T06:32:10.216Z,8.98
2019-04-22T06:32:47.220Z,9.00
2019-04-22T06:33:54.763Z,9.15
2019-04-22T06:34:48.654Z,9.17
2019-04-22T06:35:54.534Z,9.19
2019-04-22T06:36:51.097Z,9.26
2019-04-22T06:38:12.400Z,9.30
2019-04-22T06:38:50.206Z,9.24
2019-04-22T06:40:10.150Z,9.34
2019-04-22T06:40:58.418Z,9.34
2019-04-22T06:41:58.907Z,9.37
2019-04-22T06:42:51.944Z,9.34
2019-04-22T06:43:51.650Z,9.34
2019-04-22T06:44:54.901Z,9.53
2019-04-22T06:45:45.263Z,9.58
2019-04-22T06:46:52.250Z,9.50
2019-04-22T06:48:02.369Z,9.63
2019-04-22T06:48:52.428Z,9.70
2019-04-22T06:49:48.253Z,9.71
2019-04-22T06:50:47.761Z,9.83
2019-04-22T06:51:54.048Z,9.89
2019-04-22T06:52:51.567Z,9.78
2019-04-22T06:53:49.431Z,9.92
2019-04-22T06:54:54.696Z,9.95
2019-04-22T06:55:51.364Z,10.02
2019-04-22T06:56:53.303Z,10.07
2019-04-22T06:57:52.646Z,10.18
2019-04-22T06:58:55.125Z,10.20
2019-04-22T06:59:53.705Z,10.36
2019-04-22T07:00:44.444Z,10.29
2019-04-22T07:01:52.501Z,10.26
2019-04-22T07:03:13.747Z,10.32
2019-04-22T07:03:53.488Z,10.49
2019-04-22T07:04:51.958Z,10.51
2019-04-22T07:05:53.913Z,10.58
2019-04-22T07:06:56.548Z,10.58
2019-04-22T07:07:57.363Z,10.55
2019-04-22T07:10:01.381Z,10.86
2019-04-22T07:10:50.802Z,10.87
2019-04-22T07:11:54.434Z,11.01
2019-04-22T07:12:49.109Z,11.01
2019-04-22T07:13:56.612Z,11.05
2019-04-22T07:14:55.908Z,10.99
2019-04-22T07:16:54.632Z,11.13
2019-04-22T07:17:56.573Z,11.12
2019-04-22T07:18:54.889Z,11.21
2019-04-22T07:19:47.178Z,11.24
2019-04-22T07:20:50.813Z,11.39
2019-04-22T07:21:50.273Z,11.45
2019-04-22T07:22:51.387Z,11.49
2019-04-22T07:24:03.190Z,11.56
2019-04-22T07:24:56.140Z,11.60
2019-04-22T07:25:55.746Z,11.70
2019-04-22T07:26:54.439Z,11.85
2019-04-22T07:27:52.407Z,11.87
2019-04-22T07:28:50.537Z,11.87
2019-04-22T07:29:55.762Z,11.96
2019-04-22T07:30:56.109Z,11.90
2019-04-22T07:31:56.429Z,12.01
2019-04-22T07:33:55.501Z,12.26
2019-04-22T07:34:52.190Z,12.41
2019-04-22T07:36:18.162Z,12.46
2019-04-22T07:37:06.563Z,12.49
2019-04-22T07:37:50.107Z,12.54
2019-04-22T07:38:50.742Z,12.51
2019-04-22T07:39:51.387Z,12.59
2019-04-22T07:40:50.149Z,12.67
2019-04-22T07:41:51.079Z,12.63
2019-04-22T07:42:48.123Z,12.69
2019-04-22T07:44:10.234Z,12.74
2019-04-22T07:44:54.884Z,12.84
2019-04-22T07:45:56.479Z,12.91
2019-04-22T07:46:56.483Z,13.01
2019-04-22T07:48:51.838Z,13.07
2019-04-22T07:49:52.889Z,13.25
2019-04-22T07:51:10.177Z,13.22
2019-04-22T07:51:50.043Z,13.25
2019-04-22T07:52:52.223Z,13.32
2019-04-22T07:53:56.308Z,13.41
2019-04-22T07:54:52.808Z,13.57
2019-04-22T07:55:52.260Z,13.66
2019-04-22T07:57:07.302Z,13.71
2019-04-22T07:57:52.103Z,13.71
2019-04-22T07:58:56.881Z,13.84
2019-04-22T07:59:57.245Z,13.93
2019-04-22T08:00:57.641Z,14.06
2019-04-22T08:01:48.657Z,14.13
2019-04-22T08:02:59.760Z,14.27
2019-04-22T08:04:21.312Z,14.23
2019-04-22T08:06:12.338Z,14.41
2019-04-22T08:06:59.016Z,14.46
2019-04-22T08:08:02.671Z,14.57
2019-04-22T08:09:00.240Z,14.60
2019-04-22T08:09:59.861Z,14.63
2019-04-22T08:10:59.413Z,14.83
2019-04-22T08:11:52.706Z,14.85
2019-04-22T08:12:59.320Z,14.98
2019-04-22T08:13:53.289Z,15.03
2019-04-22T08:14:55.137Z,15.12
2019-04-22T08:15:58.522Z,15.18
2019-04-22T08:17:00.691Z,15.34
2019-04-22T08:18:10.166Z,15.41
2019-04-22T08:18:54.122Z,15.46
2019-04-22T08:19:55.788Z,15.58
2019-04-22T08:20:54.103Z,15.62
2019-04-22T08:21:56.276Z,15.67
2019-04-22T08:22:57.607Z,15.67
2019-04-22T08:23:57.522Z,15.66
2019-04-22T08:24:54.013Z,15.77
2019-04-22T08:25:58.014Z,15.93
2019-04-22T08:27:01.180Z,15.92
2019-04-22T08:27:59.866Z,16.13
2019-04-22T08:28:59.078Z,16.22
2019-04-22T08:30:11.809Z,16.22
2019-04-22T08:31:01.958Z,16.26
2019-04-22T08:31:58.100Z,16.37
2019-04-22T08:33:13.823Z,16.57
2019-04-22T08:34:00.608Z,16.66
2019-04-22T08:34:56.170Z,16.80
2019-04-22T08:37:25.596Z,16.91
2019-04-22T08:40:03.579Z,17.07
2019-04-22T08:40:58.117Z,17.20
2019-04-22T08:41:52.025Z,17.20
2019-04-22T08:45:57.132Z,17.60
2019-04-22T08:47:08.970Z,17.87
2019-04-22T08:47:59.165Z,17.89
2019-04-22T08:50:04.877Z,18.11
2019-04-22T08:51:07.575Z,18.25
2019-04-22T08:51:58.902Z,18.26
2019-04-22T08:53:06.476Z,18.32
2019-04-22T08:53:59.801Z,18.46
2019-04-22T08:54:57.507Z,18.49
2019-04-22T08:56:06.258Z,18.60
2019-04-22T08:56:59.336Z,18.74
2019-04-22T08:58:15.187Z,18.76
2019-04-22T08:59:02.006Z,18.94
2019-04-22T09:01:06.489Z,19.17
2019-04-22T09:01:57.472Z,19.28
2019-04-22T09:03:03.128Z,19.45
2019-04-22T09:03:58.539Z,19.39
2019-04-22T09:04:53.738Z,19.46
2019-04-22T09:07:12.399Z,19.97
2019-04-22T09:08:05.627Z,19.89
2019-04-22T09:09:01.969Z,19.76
2019-04-22T09:09:55.763Z,19.92
2019-04-22T09:11:00.077Z,19.87
2019-04-22T09:12:06.464Z,20.00
2019-04-22T09:14:06.797Z,20.20
2019-04-22T09:14:49.762Z,20.30
2019-04-22T09:15:55.502Z,20.20
2019-04-22T09:17:02.353Z,20.37
2019-04-22T09:18:06.790Z,20.35
2019-04-22T09:19:00.898Z,20.42
2019-04-22T09:20:00.106Z,20.60
2019-04-22T09:21:08.960Z,20.66
2019-04-22T09:22:00.051Z,20.72
2019-04-22T09:23:03.892Z,20.75
2019-04-22T09:24:57.377Z,20.73
2019-04-22T09:25:54.610Z,20.78
2019-04-22T09:27:05.840Z,20.85
2019-04-22T09:27:56.061Z,20.91
2019-04-22T09:29:58.565Z,21.06
2019-04-22T09:31:02.019Z,21.09
2019-04-22T09:32:05.313Z,21.12
2019-04-22T09:33:06.040Z,21.08
2019-04-22T09:33:53.212Z,21.15
2019-04-22T09:34:59.009Z,21.16
2019-04-22T09:37:07.980Z,21.16
2019-04-22T09:38:16.955Z,21.15
2019-04-22T09:39:02.909Z,21.19
2019-04-22T09:40:04.623Z,21.31
2019-04-22T09:41:00.731Z,21.36
2019-04-22T09:41:58.181Z,21.33
2019-04-22T09:43:19.232Z,21.30
2019-04-22T09:44:15.946Z,21.37
2019-04-22T09:45:04.681Z,21.33
2019-04-22T09:46:02.137Z,21.37
2019-04-22T09:47:00.337Z,21.49
2019-04-22T09:48:03.234Z,21.55
2019-04-22T09:49:06.869Z,21.64
2019-04-22T09:50:22.253Z,21.81
2019-04-22T09:51:03.760Z,21.79
2019-04-22T09:53:02.084Z,21.83
2019-04-22T09:54:07.283Z,22.04
2019-04-22T09:55:07.503Z,21.90
2019-04-22T09:56:03.886Z,21.73
2019-04-22T09:57:01.541Z,21.93
2019-04-22T09:58:05.818Z,21.99
2019-04-22T09:59:13.829Z,22.19
2019-04-22T10:00:05.755Z,22.23
2019-04-22T10:01:03.055Z,22.29
2019-04-22T10:02:14.664Z,22.26
2019-04-22T10:04:00.973Z,22.15
2019-04-22T10:06:11.761Z,22.33
2019-04-22T10:07:02.126Z,22.26
2019-04-22T10:08:12.931Z,22.27
2019-04-22T10:11:07.534Z,22.57
2019-04-22T10:12:02.817Z,22.57
2019-04-22T10:13:03.172Z,22.46
2019-04-22T10:14:59.847Z,22.66
2019-04-22T10:16:03.042Z,22.56
2019-04-22T10:17:04.953Z,22.63
2019-04-22T10:18:04.172Z,22.46
2019-04-22T10:19:04.643Z,22.70
2019-04-22T10:20:02.480Z,22.81
2019-04-22T10:21:00.987Z,22.82
2019-04-22T10:22:08.517Z,22.81
2019-04-22T10:23:05.547Z,22.75
2019-04-22T10:24:04.159Z,22.86
2019-04-22T10:25:03.332Z,23.12
2019-04-22T10:26:04.574Z,23.22
2019-04-22T10:27:04.529Z,23.50
2019-04-22T10:28:08.841Z,23.60
2019-04-22T10:29:09.128Z,23.56
2019-04-22T10:31:01.176Z,23.92
2019-04-22T10:32:00.920Z,24.06
2019-04-22T10:33:03.062Z,24.27
2019-04-22T10:33:54.824Z,24.49
2019-04-22T10:34:45.841Z,24.68
2019-04-22T10:35:39.446Z,24.36
2019-04-22T10:36:39.667Z,24.29
2019-04-22T10:37:38.751Z,24.71
2019-04-22T10:38:38.292Z,25.29
2019-04-22T10:39:47.141Z,25.72
2019-04-22T10:40:38.814Z,25.98
2019-04-22T10:41:39.006Z,25.75
2019-04-22T10:42:38.860Z,25.63
2019-04-22T10:43:39.181Z,26.16
2019-04-22T10:44:39.262Z,26.23
2019-04-22T10:45:39.875Z,26.12
2019-04-22T10:46:40.262Z,26.44
2019-04-22T10:47:40.297Z,26.16
2019-04-22T10:48:40.116Z,26.60
2019-04-22T10:49:40.290Z,26.53
2019-04-22T10:50:39.686Z,26.08
2019-04-22T10:51:40.382Z,26.09
2019-04-22T10:52:39.392Z,26.39
2019-04-22T10:53:39.664Z,26.60
2019-04-22T10:54:39.368Z,26.09
2019-04-22T10:55:42.182Z,25.76
2019-04-22T10:56:40.770Z,25.97
2019-04-22T10:57:40.919Z,26.01
2019-04-22T10:58:40.508Z,25.66
2019-04-22T10:59:40.728Z,25.76
2019-04-22T11:00:39.820Z,26.21
2019-04-22T11:01:40.411Z,26.04
2019-04-22T11:02:39.917Z,26.60
2019-04-22T11:03:41.431Z,26.73
2019-04-22T11:04:40.544Z,26.71
2019-04-22T11:05:40.122Z,26.53
2019-04-22T11:06:50.340Z,27.01
2019-04-22T11:07:47.575Z,27.15
2019-04-22T11:08:46.935Z,27.49
2019-04-22T11:09:50.492Z,27.34
2019-04-22T11:10:56.361Z,27.59
2019-04-22T11:11:48.903Z,27.61
2019-04-22T11:12:41.459Z,27.72
2019-04-22T11:13:41.883Z,27.30
2019-04-22T11:14:43.173Z,27.40
2019-04-22T11:15:40.814Z,27.76
2019-04-22T11:16:41.617Z,27.74
2019-04-22T11:17:41.779Z,27.38
2019-04-22T11:18:41.304Z,27.42
2019-04-22T11:19:41.555Z,27.76
2019-04-22T11:20:41.878Z,28.18
2019-04-22T11:21:41.416Z,27.88
2019-04-22T11:22:42.680Z,27.40
2019-04-22T11:23:42.588Z,27.43
2019-04-22T11:24:41.441Z,28.09
2019-04-22T11:25:41.665Z,28.32
2019-04-22T11:26:43.058Z,28.45
2019-04-22T11:27:44.180Z,28.88
2019-04-22T11:28:41.721Z,28.55
2019-04-22T11:29:41.793Z,27.98
2019-04-22T11:30:42.777Z,28.21
2019-04-22T11:31:42.344Z,28.95
2019-04-22T11:32:42.327Z,29.02
2019-04-22T11:33:42.773Z,29.41
2019-04-22T11:34:42.787Z,29.23
2019-04-22T11:35:43.645Z,28.74
2019-04-22T11:36:43.085Z,27.83
2019-04-22T11:37:42.762Z,28.39
2019-04-22T11:38:45.897Z,28.20
2019-04-22T11:39:42.657Z,27.99
2019-04-22T11:40:49.614Z,28.18
2019-04-22T11:41:42.634Z,28.36
2019-04-22T11:42:43.912Z,28.40
2019-04-22T11:43:43.077Z,27.58
2019-04-22T11:44:43.222Z,27.78
2019-04-22T11:45:42.918Z,27.69
2019-04-22T11:46:43.277Z,28.08
2019-04-22T11:47:43.332Z,28.69
2019-04-22T11:48:43.130Z,29.33
2019-04-22T11:49:43.968Z,28.95
2019-04-22T11:50:43.962Z,28.76
2019-04-22T11:51:43.341Z,28.32
2019-04-22T11:52:44.662Z,28.13
2019-04-22T11:53:44.907Z,28.05
2019-04-22T11:54:43.554Z,28.14
2019-04-22T11:55:44.772Z,28.08
2019-04-22T11:56:45.120Z,28.46
2019-04-22T11:57:44.776Z,28.65
2019-04-22T11:58:44.552Z,28.42
2019-04-22T11:59:44.929Z,28.18
2019-04-22T12:00:45.132Z,28.17
2019-04-22T12:01:44.611Z,28.94
2019-04-22T12:02:44.880Z,29.17
2019-04-22T12:03:44.283Z,29.21
2019-04-22T12:04:45.285Z,28.82
2019-04-22T12:05:45.841Z,28.18
2019-04-22T12:06:44.397Z,27.95
2019-04-22T12:07:44.691Z,27.74
2019-04-22T12:08:45.924Z,27.90
2019-04-22T12:09:45.833Z,28.17
2019-04-22T12:10:51.628Z,28.18
2019-04-22T12:11:44.748Z,28.39
2019-04-22T12:12:47.521Z,28.58
2019-04-22T12:13:46.177Z,29.10
2019-04-22T12:14:45.905Z,28.79
2019-04-22T12:15:45.028Z,28.48
2019-04-22T12:16:45.552Z,29.10
2019-04-22T12:17:46.207Z,29.23
2019-04-22T12:18:45.235Z,28.25
2019-04-22T12:19:46.383Z,28.58
2019-04-22T12:20:45.501Z,29.11
2019-04-22T12:21:46.751Z,29.55
2019-04-22T12:22:47.179Z,29.26
2019-04-22T12:23:45.585Z,29.39
2019-04-22T12:24:46.110Z,30.07
2019-04-22T12:25:53.534Z,30.15
2019-04-22T12:26:46.377Z,30.37
2019-04-22T12:27:47.285Z,30.32
2019-04-22T12:28:46.836Z,30.23
2019-04-22T12:29:47.058Z,29.37
2019-04-22T12:30:46.078Z,29.71
2019-04-22T12:31:47.291Z,30.06
2019-04-22T12:32:46.221Z,30.18
2019-04-22T12:33:47.476Z,30.21
2019-04-22T12:34:47.180Z,30.46
2019-04-22T12:35:46.539Z,30.07
2019-04-22T12:36:46.883Z,29.48
2019-04-22T12:37:52.842Z,29.20
2019-04-22T12:38:47.460Z,28.92
2019-04-22T12:39:48.082Z,29.03
2019-04-22T12:40:54.443Z,29.15
2019-04-22T12:41:46.856Z,29.91
2019-04-22T12:42:47.221Z,29.92
2019-04-22T12:43:47.483Z,30.10
2019-04-22T12:44:48.884Z,29.73
2019-04-22T12:45:47.995Z,28.91
2019-04-22T12:46:48.067Z,28.97
2019-04-22T12:47:48.321Z,28.89
2019-04-22T12:48:47.352Z,29.18
2019-04-22T12:49:56.171Z,28.64
2019-04-22T12:50:49.988Z,28.45
2019-04-22T12:51:47.590Z,28.48
2019-04-22T12:52:53.322Z,28.62
2019-04-22T12:53:48.862Z,28.94
2019-04-22T12:54:49.034Z,28.83
2019-04-22T12:55:48.148Z,28.58
2019-04-22T12:56:48.032Z,29.20
2019-04-22T12:57:48.548Z,29.18
2019-04-22T12:58:49.635Z,29.32
2019-04-22T12:59:48.126Z,29.54
2019-04-22T13:00:48.546Z,29.02
2019-04-22T13:01:48.892Z,29.05
2019-04-22T13:02:49.154Z,28.95
2019-04-22T13:03:49.987Z,29.08
2019-04-22T13:04:49.881Z,29.60
2019-04-22T13:05:49.501Z,29.74
2019-04-22T13:06:49.880Z,29.47
2019-04-22T13:07:49.577Z,29.33
2019-04-22T13:08:49.858Z,29.62
2019-04-22T13:09:49.528Z,29.32
2019-04-22T13:10:55.267Z,30.03
2019-04-22T13:11:49.067Z,29.85
2019-04-22T13:12:49.053Z,30.10
2019-04-22T13:13:49.396Z,30.70
2019-04-22T13:14:50.640Z,30.91
2019-04-22T13:15:50.909Z,31.04
2019-04-22T13:16:49.325Z,30.94
2019-04-22T13:18:02.401Z,31.04
2019-04-22T13:18:55.530Z,30.79
2019-04-22T13:19:49.958Z,30.61
2019-04-22T13:20:50.589Z,30.96
2019-04-22T13:21:50.882Z,31.00
2019-04-22T13:22:50.565Z,31.13
2019-04-22T13:23:50.823Z,31.22
2019-04-22T13:24:50.010Z,31.54
2019-04-22T13:25:49.951Z,31.25
2019-04-22T13:26:50.655Z,31.42
2019-04-22T13:27:51.148Z,31.56
2019-04-22T13:28:51.399Z,32.09
2019-04-22T13:29:51.023Z,31.45
2019-04-22T13:30:50.622Z,32.17
2019-04-22T13:31:50.858Z,32.39
2019-04-22T13:32:50.448Z,32.35
2019-04-22T13:33:53.666Z,32.41
2019-04-22T13:34:55.433Z,31.10
2019-04-22T13:35:52.088Z,30.01
2019-04-22T13:36:50.735Z,29.35
2019-04-22T13:37:51.038Z,29.89
2019-04-22T13:38:51.278Z,30.64
2019-04-22T13:39:50.952Z,30.42
2019-04-22T13:41:10.869Z,30.51
2019-04-22T13:41:56.274Z,31.35
2019-04-22T13:42:51.241Z,31.75
2019-04-22T13:43:51.240Z,30.86
2019-04-22T13:44:51.809Z,30.49
2019-04-22T13:45:51.984Z,30.86
2019-04-22T13:47:08.251Z,30.61
2019-04-22T13:48:12.983Z,30.38
2019-04-22T13:49:17.309Z,30.75
2019-04-22T13:50:27.163Z,31.01
2019-04-22T13:51:21.772Z,30.85
2019-04-22T13:52:31.969Z,30.38
2019-04-22T13:55:17.718Z,31.99
2019-04-22T13:56:13.588Z,32.28
2019-04-22T13:57:14.678Z,32.77
2019-04-22T13:58:02.644Z,31.90
2019-04-22T13:59:06.225Z,31.72
2019-04-22T13:59:57.888Z,32.09
2019-04-22T14:00:52.476Z,31.01
2019-04-22T14:01:52.788Z,30.91
2019-04-22T14:02:52.827Z,30.67
2019-04-22T14:03:52.685Z,31.54
2019-04-22T14:04:52.856Z,31.85
2019-04-22T14:05:53.054Z,31.60
2019-04-22T14:06:52.902Z,31.18
2019-04-22T14:07:55.172Z,30.75
2019-04-22T14:08:53.389Z,31.23
2019-04-22T14:09:54.115Z,31.62
2019-04-22T14:10:54.413Z,32.27
2019-04-22T14:11:58.282Z,31.97
2019-04-22T14:12:53.340Z,32.12
2019-04-22T14:13:53.413Z,32.53
2019-04-22T14:14:54.457Z,32.53
2019-04-22T14:15:54.970Z,32.66
2019-04-22T14:16:54.874Z,32.17
2019-04-22T14:17:54.679Z,32.10
2019-04-22T14:18:53.973Z,31.59
2019-04-22T14:19:54.994Z,31.38
2019-04-22T14:20:54.518Z,30.88
2019-04-22T14:21:53.998Z,30.06
2019-04-22T14:22:54.787Z,29.48
2019-04-22T14:23:54.153Z,29.17
2019-04-22T14:24:54.548Z,29.45
2019-04-22T14:25:54.790Z,29.76
2019-04-22T14:27:08.807Z,29.74
2019-04-22T14:28:01.234Z,29.85
2019-04-22T14:28:55.692Z,30.01
2019-04-22T14:29:55.635Z,29.73
2019-04-22T14:30:54.756Z,28.76
2019-04-22T14:32:05.557Z,28.98
2019-04-22T14:32:55.948Z,29.42
2019-04-22T14:33:59.367Z,29.64
2019-04-22T14:34:55.319Z,29.26
2019-04-22T14:35:56.380Z,28.74
2019-04-22T14:36:55.297Z,28.02
2019-04-22T14:37:56.435Z,28.28